createdAt,value
2023-04-28T00:01:21.723Z,100399.47
2023-04-28T00:03:51.694Z,100395.41
2023-04-28T00:06:20.476Z,100393.97
2023-04-28T00:08:53.336Z,100399.53
2023-04-28T00:11:22.776Z,100390.50
2023-04-28T00:13:53.634Z,100389.06
2023-04-28T00:16:22.036Z,100392.53
2023-04-28T00:18:51.187Z,100388.34
2023-04-28T00:21:20.871Z,100390.16
2023-04-28T00:23:49.416Z,100396.38
2023-04-28T00:26:20.145Z,100389.91
2023-04-28T00:28:48.789Z,100386.94
2023-04-28T00:31:17.420Z,100392.56
2023-04-28T00:33:47.354Z,100398.56
2023-04-28T00:36:16.015Z,100395.09
2023-04-28T00:38:45.682Z,100388.59
2023-04-28T00:41:15.914Z,100393.03
2023-04-28T00:43:49.892Z,100395.81
2023-04-28T00:46:24.354Z,100397.72
2023-04-28T00:49:00.173Z,100406.47
2023-04-28T00:51:29.377Z,100408.28
2023-04-28T00:54:02.330Z,100405.66
2023-04-28T00:56:32.308Z,100406.47
2023-04-28T00:59:02.453Z,100412.22
2023-04-28T01:01:32.799Z,100408.50
2023-04-28T01:04:02.328Z,100408.13
2023-04-28T01:06:31.203Z,100410.16
2023-04-28T01:09:01.547Z,100405.81
2023-04-28T01:11:30.180Z,100405.81
2023-04-28T01:14:04.782Z,100396.84
2023-04-28T01:16:33.884Z,100400.81
2023-04-28T01:19:03.627Z,100397.44
2023-04-28T01:21:33.967Z,100415.81
2023-04-28T01:24:03.843Z,100413.88
2023-04-28T01:26:32.206Z,100423.09
2023-04-28T01:29:00.719Z,100414.25
2023-04-28T01:31:31.288Z,100422.69
2023-04-28T01:34:00.302Z,100424.50
2023-04-28T01:36:28.847Z,100425.19
2023-04-28T01:38:57.525Z,100421.00
2023-04-28T01:41:29.090Z,100422.31
2023-04-28T01:43:59.839Z,100429.41
2023-04-28T01:46:28.717Z,100440.94
2023-04-28T01:48:57.148Z,100445.84
2023-04-28T01:51:28.563Z,100455.22
2023-04-28T01:53:58.164Z,100455.69
2023-04-28T01:56:28.236Z,100456.00
2023-04-28T01:58:58.701Z,100455.78
2023-04-28T02:01:28.264Z,100455.78
2023-04-28T02:03:57.145Z,100455.53
2023-04-28T02:06:27.866Z,100450.84
2023-04-28T02:08:58.843Z,100452.53
2023-04-28T02:11:28.717Z,100450.72
2023-04-28T02:13:57.114Z,100455.63
2023-04-28T02:16:25.611Z,100451.41
2023-04-28T02:19:01.248Z,100452.38
2023-04-28T02:21:29.951Z,100455.88
2023-04-28T02:23:58.750Z,100457.28
2023-04-28T02:26:28.719Z,100464.84
2023-04-28T02:28:57.125Z,100459.56
2023-04-28T02:31:27.222Z,100464.16
2023-04-28T02:33:56.947Z,100460.31
2023-04-28T02:36:27.942Z,100457.16
2023-04-28T02:38:56.351Z,100459.81
2023-04-28T02:41:25.273Z,100460.78
2023-04-28T02:43:57.017Z,100463.19
2023-04-28T02:46:29.515Z,100465.69
2023-04-28T02:48:58.471Z,100465.81
2023-04-28T02:51:27.020Z,100468.47
2023-04-28T02:53:56.507Z,100465.34
2023-04-28T02:56:25.279Z,100469.91
2023-04-28T02:59:00.815Z,100469.34
2023-04-28T03:01:29.282Z,100476.28
2023-04-28T03:03:58.257Z,100473.75
2023-04-28T03:06:27.178Z,100476.28
2023-04-28T03:08:55.649Z,100475.31
2023-04-28T03:11:24.430Z,100468.97
2023-04-28T03:13:54.471Z,100475.19
2023-04-28T03:16:26.853Z,100471.84
2023-04-28T03:18:55.355Z,100471.84
2023-04-28T03:21:23.837Z,100478.81
2023-04-28T03:23:53.439Z,100484.94
2023-04-28T03:26:23.066Z,100482.19
2023-04-28T03:28:51.249Z,100483.94
2023-04-28T03:31:20.664Z,100489.38
2023-04-28T03:33:50.686Z,100481.56
2023-04-28T03:36:19.569Z,100490.34
2023-04-28T03:38:47.920Z,100499.94
2023-04-28T03:41:17.625Z,100499.94
2023-04-28T03:43:47.358Z,100503.41
2023-04-28T03:46:15.913Z,100506.06
2023-04-28T03:48:46.453Z,100503.41
2023-04-28T03:51:16.540Z,100510.50
2023-04-28T03:53:45.616Z,100507.75
2023-04-28T03:56:14.279Z,100510.53
2023-04-28T03:58:43.580Z,100517.72
2023-04-28T04:01:12.073Z,100516.56
2023-04-28T04:03:41.816Z,100521.00
2023-04-28T04:06:11.786Z,100518.44
2023-04-28T04:08:42.839Z,100512.69
2023-04-28T04:11:13.883Z,100520.75
2023-04-28T04:13:42.680Z,100522.56
2023-04-28T04:16:12.228Z,100512.94
2023-04-28T04:18:40.818Z,100520.00
2023-04-28T04:21:09.258Z,100522.19
2023-04-28T04:23:38.547Z,100528.56
2023-04-28T04:26:10.770Z,100538.16
2023-04-28T04:28:42.522Z,100532.41
2023-04-28T04:31:10.945Z,100534.41
2023-04-28T04:33:39.553Z,100536.56
2023-04-28T04:36:08.993Z,100527.91
2023-04-28T04:38:38.335Z,100538.09
2023-04-28T04:41:08.294Z,100540.16
2023-04-28T04:43:38.956Z,100545.44
2023-04-28T04:46:07.598Z,100543.38
2023-04-28T04:48:36.030Z,100550.47
2023-04-28T04:51:04.353Z,100546.28
2023-04-28T04:53:35.606Z,100549.75
2023-04-28T04:56:04.285Z,100555.25
2023-04-28T04:58:33.063Z,100556.94
2023-04-28T05:01:04.916Z,100568.59
2023-04-28T05:03:33.563Z,100569.78
2023-04-28T05:06:03.158Z,100580.09
2023-04-28T05:08:31.651Z,100577.69
2023-04-28T05:11:00.333Z,100577.69
2023-04-28T05:13:28.909Z,100578.53
2023-04-28T05:15:57.360Z,100582.97
2023-04-28T05:18:29.363Z,100584.63
2023-04-28T05:20:57.743Z,100588.03
2023-04-28T05:23:26.231Z,100595.81
2023-04-28T05:25:54.819Z,100596.88
2023-04-28T05:28:24.414Z,100599.16
2023-04-28T05:30:52.924Z,100609.50
2023-04-28T05:33:21.459Z,100611.06
2023-04-28T05:35:52.503Z,100607.56
2023-04-28T05:38:23.318Z,100615.47
2023-04-28T05:40:59.116Z,100615.47
2023-04-28T05:43:27.407Z,100626.47
2023-04-28T05:45:59.158Z,100626.47
2023-04-28T05:48:27.632Z,100634.03
2023-04-28T05:50:58.465Z,100632.00
2023-04-28T05:53:33.165Z,100638.59
2023-04-28T05:56:02.246Z,100640.63
2023-04-28T05:58:32.133Z,100641.47
2023-04-28T06:01:01.283Z,100636.44
2023-04-28T06:03:29.969Z,100642.22
2023-04-28T06:06:00.418Z,100646.41
2023-04-28T06:08:28.772Z,100649.66
2023-04-28T06:10:57.566Z,100644.50
2023-04-28T06:13:26.228Z,100652.78
2023-04-28T06:15:55.213Z,100657.31
2023-04-28T06:18:24.437Z,100656.34
2023-04-28T06:20:53.681Z,100661.03
2023-04-28T06:23:23.521Z,100668.72
2023-04-28T06:25:52.065Z,100670.28
2023-04-28T06:28:20.494Z,100672.09
2023-04-28T06:30:48.922Z,100677.03
2023-04-28T06:33:17.784Z,100682.19
2023-04-28T06:35:46.706Z,100683.28
2023-04-28T06:38:15.270Z,100682.94
2023-04-28T06:40:46.114Z,100687.03
2023-04-28T06:43:14.509Z,100692.06
2023-04-28T06:45:43.233Z,100692.06
2023-04-28T06:48:11.641Z,100703.00
2023-04-28T06:50:41.662Z,100701.81
2023-04-28T06:53:11.535Z,100710.94
2023-04-28T06:55:40.340Z,100707.94
2023-04-28T06:58:10.341Z,100705.53
2023-04-28T07:00:38.809Z,100713.84
2023-04-28T07:03:07.843Z,100718.38
2023-04-28T07:05:38.955Z,100718.38
2023-04-28T07:08:07.912Z,100725.03
2023-04-28T07:10:36.491Z,100721.63
2023-04-28T07:13:05.192Z,100726.69
2023-04-28T07:15:35.378Z,100729.81
2023-04-28T07:18:03.941Z,100728.34
2023-04-28T07:20:32.790Z,100726.22
2023-04-28T07:23:01.594Z,100728.59
2023-04-28T07:25:32.196Z,100732.22
2023-04-28T07:28:00.841Z,100739.66
2023-04-28T07:30:29.312Z,100741.69
2023-04-28T07:32:59.914Z,100744.72
2023-04-28T07:35:28.516Z,100743.72
2023-04-28T07:37:58.202Z,100744.72
2023-04-28T07:40:26.995Z,100757.59
2023-04-28T07:42:55.751Z,100761.78
2023-04-28T07:45:24.217Z,100768.88
2023-04-28T07:47:52.878Z,100768.63
2023-04-28T07:50:23.615Z,100775.47
2023-04-28T07:52:52.163Z,100778.94
2023-04-28T07:55:20.428Z,100781.38
2023-04-28T07:57:49.782Z,100786.44
2023-04-28T08:00:19.546Z,100782.31
2023-04-28T08:02:47.988Z,100791.84
2023-04-28T08:05:18.074Z,100793.84
2023-04-28T08:07:48.475Z,100796.63
2023-04-28T08:10:18.152Z,100800.47
2023-04-28T08:12:46.651Z,100806.03
2023-04-28T08:15:16.710Z,100808.03
2023-04-28T08:17:47.230Z,100802.75
2023-04-28T08:20:21.666Z,100809.50
2023-04-28T08:22:53.828Z,100809.84
2023-04-28T08:25:22.742Z,100814.53
2023-04-28T08:27:51.672Z,100806.59
2023-04-28T08:30:20.119Z,100825.00
2023-04-28T08:32:48.921Z,100825.59
2023-04-28T08:35:17.547Z,100817.56
2023-04-28T08:37:46.734Z,100822.34
2023-04-28T08:40:16.766Z,100825.34
2023-04-28T08:42:47.544Z,100828.13
2023-04-28T08:45:16.975Z,100825.19
2023-04-28T08:47:48.056Z,100826.41
2023-04-28T08:50:17.577Z,100835.50
2023-04-28T08:52:46.428Z,100828.50
2023-04-28T08:55:17.725Z,100837.25
2023-04-28T08:57:51.800Z,100837.25
2023-04-28T09:00:20.357Z,100833.16
2023-04-28T09:02:49.235Z,100841.19
2023-04-28T09:05:18.190Z,100832.63
2023-04-28T09:07:49.043Z,100832.53
2023-04-28T09:10:24.145Z,100833.69
2023-04-28T09:12:54.724Z,100841.88
2023-04-28T09:15:33.884Z,100835.72
2023-04-28T09:18:03.204Z,100831.78
2023-04-28T09:20:33.984Z,100842.59
2023-04-28T09:23:17.924Z,100841.38
2023-04-28T09:26:01.942Z,100845.41
2023-04-28T09:28:30.464Z,100840.31
2023-04-28T09:30:59.718Z,100842.38
2023-04-28T09:33:28.710Z,100843.34
2023-04-28T09:35:58.354Z,100843.53
2023-04-28T09:38:27.520Z,100849.50
2023-04-28T09:40:58.909Z,100851.28
2023-04-28T09:43:34.838Z,100851.28
2023-04-28T09:46:05.706Z,100851.66
2023-04-28T09:48:38.277Z,100858.44
2023-04-28T09:51:09.466Z,100857.91
2023-04-28T09:53:39.008Z,100857.88
2023-04-28T09:56:08.743Z,100868.16
2023-04-28T09:58:42.635Z,100871.56
2023-04-28T10:01:13.205Z,100873.44
2023-04-28T10:03:42.419Z,100872.16
2023-04-28T10:06:11.283Z,100869.56
2023-04-28T10:08:40.810Z,100867.06
2023-04-28T10:11:10.450Z,100868.34
2023-04-28T10:13:40.884Z,100860.94
2023-04-28T10:16:10.348Z,100856.28
2023-04-28T10:18:39.500Z,100848.72
2023-04-28T10:21:09.602Z,100860.19
2023-04-28T10:24:07.349Z,100857.84
2023-04-28T10:27:07.176Z,100852.31
2023-04-28T10:29:37.988Z,100865.81
2023-04-28T10:32:26.250Z,100872.16
2023-04-28T10:34:55.156Z,100877.75
2023-04-28T10:37:58.595Z,100876.25
2023-04-28T10:40:34.088Z,100880.06
2023-04-28T10:43:03.954Z,100891.44
2023-04-28T10:46:02.213Z,100888.63
2023-04-28T10:49:07.330Z,100896.22
2023-04-28T10:51:38.242Z,100905.72
2023-04-28T10:54:18.049Z,100902.09
2023-04-28T10:57:29.177Z,100904.59
2023-04-28T11:00:30.970Z,100907.16
2023-04-28T11:03:02.696Z,100894.50
2023-04-28T11:05:33.712Z,100889.75
2023-04-28T11:08:33.527Z,100875.16
2023-04-28T11:11:22.094Z,100873.78
2023-04-28T11:13:51.809Z,100869.13
2023-04-28T11:16:23.010Z,100860.59
2023-04-28T11:18:59.668Z,100861.31
2023-04-28T11:21:29.696Z,100867.31
2023-04-28T11:24:00.021Z,100871.22
2023-04-28T11:26:31.522Z,100857.53
2023-04-28T11:29:00.042Z,100856.69
2023-04-28T11:31:29.165Z,100864.31
2023-04-28T11:34:12.091Z,100875.78
2023-04-28T11:36:41.445Z,100871.84
2023-04-28T11:39:12.923Z,100868.34
2023-04-28T11:41:42.727Z,100867.34
2023-04-28T11:44:15.521Z,100877.72
2023-04-28T11:46:51.189Z,100881.66
2023-04-28T11:49:21.423Z,100877.50
2023-04-28T11:51:50.571Z,100869.56
2023-04-28T11:54:23.564Z,100878.09
2023-04-28T11:56:52.921Z,100872.63
2023-04-28T11:59:26.493Z,100881.88
2023-04-28T12:01:57.656Z,100870.28
2023-04-28T12:04:35.924Z,100869.53
2023-04-28T12:07:08.101Z,100866.31
2023-04-28T12:09:37.112Z,100865.56
2023-04-28T12:12:08.308Z,100865.09
2023-04-28T12:14:56.081Z,100861.25
2023-04-28T12:17:28.610Z,100854.28
2023-04-28T12:20:04.043Z,100856.88
2023-04-28T12:22:33.146Z,100875.75
2023-04-28T12:25:07.348Z,100864.00
2023-04-28T12:27:38.622Z,100861.00
2023-04-28T12:30:28.461Z,100872.91
2023-04-28T12:32:58.090Z,100872.97
2023-04-28T12:35:30.892Z,100880.03
2023-04-28T12:37:59.870Z,100887.44
2023-04-28T12:40:28.401Z,100892.63
2023-04-28T12:42:57.289Z,100888.66
2023-04-28T12:45:26.327Z,100897.53
2023-04-28T12:47:57.273Z,100894.56
2023-04-28T12:50:26.199Z,100893.81
2023-04-28T12:52:56.824Z,100887.97
2023-04-28T12:55:25.537Z,100894.69
2023-04-28T12:57:54.072Z,100895.22
2023-04-28T13:00:23.701Z,100892.56
2023-04-28T13:02:53.356Z,100888.00
2023-04-28T13:05:22.180Z,100899.69
2023-04-28T13:07:52.719Z,100909.00
2023-04-28T13:10:23.971Z,100917.69
2023-04-28T13:12:52.511Z,100910.09
2023-04-28T13:15:22.572Z,100913.44
2023-04-28T13:17:51.219Z,100912.25
2023-04-28T13:20:20.763Z,100909.75
2023-04-28T13:22:50.527Z,100914.41
2023-04-28T13:25:21.958Z,100921.13
2023-04-28T13:27:50.649Z,100908.13
2023-04-28T13:30:19.069Z,100912.59
2023-04-28T13:32:47.592Z,100914.28
2023-04-28T13:35:16.415Z,100914.53
2023-04-28T13:37:46.352Z,100917.16
2023-04-28T13:40:14.925Z,100912.91
2023-04-28T13:42:44.808Z,100916.66
2023-04-28T13:45:14.908Z,100926.31
2023-04-28T13:47:45.931Z,100921.75
2023-04-28T13:50:14.259Z,100921.59
2023-04-28T13:52:42.764Z,100923.94
2023-04-28T13:55:11.583Z,100918.28
2023-04-28T13:57:41.548Z,100910.16
2023-04-28T14:00:13.734Z,100905.22
2023-04-28T14:02:43.738Z,100908.09
2023-04-28T14:05:12.950Z,100915.66
2023-04-28T14:07:41.903Z,100912.16
2023-04-28T14:10:12.383Z,100904.38
2023-04-28T14:12:41.072Z,100910.31
2023-04-28T14:15:12.230Z,100905.69
2023-04-28T14:17:41.020Z,100893.91
2023-04-28T14:20:12.299Z,100902.84
2023-04-28T14:22:42.474Z,100897.66
2023-04-28T14:25:12.037Z,100889.28
2023-04-28T14:27:40.516Z,100893.22
2023-04-28T14:30:10.502Z,100898.66
2023-04-28T14:32:40.668Z,100894.41
2023-04-28T14:35:10.554Z,100893.69
2023-04-28T14:37:39.260Z,100890.91
2023-04-28T14:40:09.561Z,100907.72
2023-04-28T14:42:38.922Z,100892.56
2023-04-28T14:45:09.347Z,100890.13
2023-04-28T14:47:40.457Z,100893.59
2023-04-28T14:50:13.203Z,100898.16
2023-04-28T14:52:42.981Z,100899.38
2023-04-28T14:55:11.846Z,100897.56
2023-04-28T14:57:40.276Z,100895.34
2023-04-28T15:00:10.313Z,100888.34
2023-04-28T15:02:40.420Z,100897.72
2023-04-28T15:05:11.702Z,100894.44
2023-04-28T15:07:40.360Z,100891.41
2023-04-28T15:10:09.921Z,100898.81
2023-04-28T15:12:39.316Z,100897.16
2023-04-28T15:15:08.690Z,100892.88
2023-04-28T15:17:39.579Z,100899.78
2023-04-28T15:20:14.453Z,100905.25
2023-04-28T15:22:44.836Z,100903.75
2023-04-28T15:25:19.019Z,100908.41
2023-04-28T15:27:52.075Z,100907.41
2023-04-28T15:30:23.700Z,100911.28
2023-04-28T15:32:53.925Z,100912.22
2023-04-28T15:35:23.403Z,100905.44
2023-04-28T15:37:57.116Z,100904.09
2023-04-28T15:40:25.682Z,100905.59
2023-04-28T15:42:54.383Z,100897.50
2023-04-28T15:45:24.344Z,100892.75
2023-04-28T15:47:55.223Z,100893.88
2023-04-28T15:50:24.316Z,100900.59
2023-04-28T15:52:52.870Z,100899.91
2023-04-28T15:55:25.240Z,100914.97
2023-04-28T15:58:00.916Z,100912.19
2023-04-28T16:00:30.654Z,100913.78
2023-04-28T16:03:01.631Z,100905.09
2023-04-28T16:05:33.757Z,100897.19
2023-04-28T16:08:02.075Z,100909.63
2023-04-28T16:10:30.926Z,100909.78
2023-04-28T16:12:59.264Z,100918.19
2023-04-28T16:15:29.814Z,100917.84
2023-04-28T16:18:02.336Z,100926.88
2023-04-28T16:20:31.598Z,100921.44
2023-04-28T16:23:00.244Z,100925.72
2023-04-28T16:25:30.873Z,100929.53
2023-04-28T16:28:01.698Z,100928.34
2023-04-28T16:30:30.948Z,100915.00
2023-04-28T16:32:59.664Z,100908.81
2023-04-28T16:35:30.497Z,100920.50
2023-04-28T16:37:59.935Z,100920.47
2023-04-28T16:40:28.921Z,100927.06
2023-04-28T16:42:58.464Z,100928.25
2023-04-28T16:45:27.134Z,100930.88
2023-04-28T16:48:01.590Z,100925.84
2023-04-28T16:50:34.200Z,100928.56
2023-04-28T16:53:02.652Z,100933.09
2023-04-28T16:55:31.173Z,100929.06
2023-04-28T16:57:59.831Z,100922.34
2023-04-28T17:00:29.740Z,100918.03
2023-04-28T17:02:58.281Z,100923.16
2023-04-28T17:05:27.240Z,100930.47
2023-04-28T17:07:58.152Z,100938.34
2023-04-28T17:10:27.086Z,100929.06
2023-04-28T17:12:55.924Z,100920.38
2023-04-28T17:15:24.721Z,100915.84
2023-04-28T17:17:54.317Z,100929.72
2023-04-28T17:20:23.430Z,100935.50
2023-04-28T17:22:53.405Z,100944.91
2023-04-28T17:25:25.148Z,100944.16
2023-04-28T17:27:55.714Z,100951.78
2023-04-28T17:30:26.432Z,100945.56
2023-04-28T17:32:56.283Z,100953.31
2023-04-28T17:35:25.068Z,100958.44
2023-04-28T17:37:53.364Z,100967.63
2023-04-28T17:40:24.670Z,100979.72
2023-04-28T17:42:53.643Z,100968.78
2023-04-28T17:45:22.096Z,100974.22
2023-04-28T17:47:53.776Z,100986.44
2023-04-28T17:50:22.836Z,101001.13
2023-04-28T17:52:51.852Z,101014.34
2023-04-28T17:55:20.520Z,101021.97
2023-04-28T17:57:51.900Z,101034.25
2023-04-28T18:00:20.721Z,101044.56
2023-04-28T18:02:49.267Z,101054.00
2023-04-28T18:05:18.235Z,101059.88
2023-04-28T18:07:47.187Z,101058.78
2023-04-28T18:10:17.317Z,101070.25
2023-04-28T18:12:46.619Z,101071.94
2023-04-28T18:15:16.777Z,101080.34
2023-04-28T18:17:46.401Z,101076.13
2023-04-28T18:20:15.074Z,101077.13
2023-04-28T18:22:43.572Z,101068.84
2023-04-28T18:25:13.421Z,101066.69
2023-04-28T18:27:42.181Z,101024.66
2023-04-28T18:30:11.849Z,100998.19
2023-04-28T18:32:42.773Z,100997.81
2023-04-28T18:35:11.583Z,101006.91
2023-04-28T18:37:40.213Z,101022.44
2023-04-28T18:40:10.748Z,101038.63
2023-04-28T18:42:40.428Z,101059.53
2023-04-28T18:47:39.170Z,101070.22
2023-04-28T18:50:10.696Z,101057.63
2023-04-28T18:52:39.166Z,101032.31
2023-04-28T18:55:08.348Z,101046.91
2023-04-28T18:57:38.897Z,101066.19
2023-04-28T19:00:10.024Z,101077.91
2023-04-28T19:02:38.858Z,101078.06
2023-04-28T19:05:10.572Z,101078.81
2023-04-28T19:07:40.242Z,101087.75
2023-04-28T19:10:09.993Z,101062.41
2023-04-28T19:12:38.689Z,101046.13
2023-04-28T19:15:07.676Z,101038.88
2023-04-28T19:17:36.680Z,101040.13
2023-04-28T19:20:05.672Z,101057.66
2023-04-28T19:22:37.153Z,101067.75
2023-04-28T19:25:07.059Z,101082.94
2023-04-28T19:27:37.509Z,101091.84
2023-04-28T19:30:08.258Z,101096.72
2023-04-28T19:32:39.560Z,101111.97
2023-04-28T19:35:11.997Z,101116.00
2023-04-28T19:37:42.573Z,101131.94
2023-04-28T19:40:12.205Z,101131.19
2023-04-28T19:42:42.049Z,101128.06
2023-04-28T19:45:12.766Z,101141.31
2023-04-28T19:47:42.726Z,101145.84
2023-04-28T19:50:11.752Z,101157.97
2023-04-28T19:52:42.767Z,101158.88
2023-04-28T19:55:19.964Z,101164.72
2023-04-28T19:57:49.083Z,101167.75
2023-04-28T20:00:18.966Z,101168.41
2023-04-28T20:02:47.534Z,101162.50
2023-04-28T20:05:16.809Z,101169.44
2023-04-28T20:07:46.612Z,101174.63
2023-04-28T20:10:15.755Z,101188.88
2023-04-28T20:12:44.166Z,101179.19
2023-04-28T20:15:14.187Z,101189.38
2023-04-28T20:17:42.817Z,101188.22
2023-04-28T20:20:12.398Z,101195.13
2023-04-28T20:22:42.127Z,101201.03
2023-04-28T20:25:17.726Z,101204.06
2023-04-28T20:27:47.415Z,101207.38
2023-04-28T20:30:19.137Z,101214.59
2023-04-28T20:32:48.952Z,101210.13
2023-04-28T20:35:17.736Z,101205.94
2023-04-28T20:37:47.527Z,101211.25
2023-04-28T20:40:19.248Z,101209.66
2023-04-28T20:42:47.929Z,101220.19
2023-04-28T20:45:16.540Z,101224.19
2023-04-28T20:47:45.396Z,101232.50
2023-04-28T20:50:14.040Z,101242.38
2023-04-28T20:52:43.508Z,101237.06
2023-04-28T20:55:19.683Z,101236.22
2023-04-28T20:57:50.056Z,101241.91
2023-04-28T21:00:20.580Z,101239.63
2023-04-28T21:02:50.304Z,101241.16
2023-04-28T21:05:25.112Z,101246.94
2023-04-28T21:07:55.847Z,101241.88
2023-04-28T21:10:26.312Z,101256.84
2023-04-28T21:12:56.902Z,101246.72
2023-04-28T21:15:29.071Z,101238.13
2023-04-28T21:17:58.890Z,101235.75
2023-04-28T21:20:30.467Z,101246.00
2023-04-28T21:23:03.073Z,101242.84
2023-04-28T21:25:42.329Z,101247.91
2023-04-28T21:28:11.515Z,101251.19
2023-04-28T21:30:41.429Z,101252.13
2023-04-28T21:33:09.830Z,101243.69
2023-04-28T21:35:39.587Z,101245.97
2023-04-28T21:38:08.046Z,101244.53
2023-04-28T21:40:40.552Z,101250.81
2023-04-28T21:43:10.777Z,101255.13
2023-04-28T21:45:46.373Z,101252.72
2023-04-28T21:48:23.982Z,101255.84
2023-04-28T21:50:55.198Z,101261.38
2023-04-28T21:53:23.865Z,101252.94
2023-04-28T21:55:53.818Z,101261.13
2023-04-28T21:58:22.128Z,101260.53
2023-04-28T22:01:09.851Z,101260.50
2023-04-28T22:03:41.396Z,101259.03
2023-04-28T22:06:10.596Z,101258.31
2023-04-28T22:08:39.228Z,101253.00
2023-04-28T22:11:09.991Z,101254.19
2023-04-28T22:13:39.605Z,101259.00
2023-04-28T22:16:08.190Z,101266.13
2023-04-28T22:18:38.177Z,101263.69
2023-04-28T22:21:08.272Z,101269.31
2023-04-28T22:23:38.297Z,101272.00
2023-04-28T22:26:08.558Z,101274.25
2023-04-28T22:28:39.251Z,101273.41
2023-04-28T22:31:07.982Z,101276.00
2023-04-28T22:33:43.833Z,101272.38
2023-04-28T22:36:21.009Z,101279.16
2023-04-28T22:38:51.605Z,101280.84
2023-04-28T22:41:21.387Z,101287.09
2023-04-28T22:43:51.402Z,101286.09
2023-04-28T22:46:21.104Z,101288.56
2023-04-28T22:48:55.842Z,101290.06
2023-04-28T22:51:25.798Z,101291.09
2023-04-28T22:53:55.710Z,101300.13
2023-04-28T22:56:26.882Z,101306.69
2023-04-28T22:58:55.767Z,101304.44
2023-04-28T23:01:26.411Z,101303.91
2023-04-28T23:03:56.853Z,101301.34
2023-04-28T23:06:29.168Z,101292.50
2023-04-28T23:08:58.067Z,101302.84
2023-04-28T23:11:29.287Z,101302.84
2023-04-28T23:13:59.961Z,101300.09
2023-04-28T23:16:30.948Z,101298.50
2023-04-28T23:19:01.035Z,101297.88
2023-04-28T23:21:31.418Z,101294.38
2023-04-28T23:24:06.018Z,101305.94
2023-04-28T23:26:38.736Z,101301.59
2023-04-28T23:29:09.294Z,101304.78
2023-04-28T23:31:40.315Z,101300.84
2023-04-28T23:34:09.042Z,101313.34
2023-04-28T23:36:38.098Z,101310.72
2023-04-28T23:39:08.671Z,101317.94
2023-04-28T23:41:38.687Z,101310.31
2023-04-28T23:44:08.319Z,101318.34
2023-04-28T23:46:37.045Z,101315.69
2023-04-28T23:49:05.391Z,101328.38
2023-04-28T23:51:38.519Z,101328.06
2023-04-28T23:54:06.965Z,101337.59
2023-04-28T23:56:38.096Z,101336.00
2023-04-28T23:59:10.503Z,101339.72
